Strongs, Michigan
Current Conditions -  °F | °C
As of 12:34 PM on Tuesday 21 Oct 2014 (Local Time) from KERY Reporting Station
Clear Clear  
Wind Chill: 36°   Ceiling: Unl
Heat Index: 42°   Visibility: 10mi
Dew Point: 32°   Wind: 9mph
Humidity: 68%   Direction: 360°N
Pressure: 30.22"   Gusts: NA
Location:  46.36°N, 84.97°W
Report Text: KERY 211634Z AUTO 36008KT 10SM CLR 06/00 A3022 RMK AO2 T00550000
Loading
Personal Weather Stations






























Interactive Weather Map New forecast layout! Learn more

10-Day Weather Forecast

Advertisements
Track Severe Weather on mobile